Time;durP1;ratioP1;P1;durP2;ratioP2;P2;SDS_P1;SDS_P2;PMS_P1;PMS_P2;Temp;Humidity;BMP_temperature;BMP_pressure;BME280_temperature;BME280_humidity;BME280_pressure;Samples;Min_cycle;Max_cycle;Signal;HPM_P1;HPM_P2
2021/01/15 00:00:23;;;;;;;15.60;5.90;;;5.90;86.90;;;;;;5015662;28;20026;-50
2021/01/15 00:02:49;;;;;;;12.38;6.30;;;5.90;86.90;;;;;;5014908;28;20025;-50
2021/01/15 00:05:14;;;;;;;12.57;6.80;;;5.90;86.90;;;;;;5018154;28;20049;-50
2021/01/15 00:07:40;;;;;;;16.42;6.35;;;5.90;86.90;;;;;;5034178;28;20029;-50
2021/01/15 00:10:06;;;;;;;7.70;5.03;;;5.90;86.90;;;;;;5024134;28;20089;-50
2021/01/15 00:12:32;;;;;;;12.77;5.43;;;5.80;86.80;;;;;;5014550;28;20084;-50
2021/01/15 00:14:57;;;;;;;9.63;5.50;;;5.90;86.90;;;;;;5013908;28;20029;-50
2021/01/15 00:17:23;;;;;;;10.98;5.72;;;5.90;86.90;;;;;;5019052;28;20503;-50
2021/01/15 00:19:49;;;;;;;13.63;5.18;;;5.80;86.80;;;;;;5034011;28;20116;-50
2021/01/15 00:22:15;;;;;;;6.43;3.90;;;5.90;86.80;;;;;;5033964;28;20528;-50
2021/01/15 00:24:40;;;;;;;11.60;5.47;;;5.80;86.80;;;;;;5025946;28;20026;-50
2021/01/15 00:27:07;;;;;;;8.18;5.28;;;5.90;86.90;;;;;;5014211;28;20080;-50
2021/01/15 00:29:32;;;;;;;10.02;5.45;;;5.80;86.80;;;;;;5014769;28;20022;-50
2021/01/15 00:31:58;;;;;;;10.18;4.65;;;5.90;86.80;;;;;;5014266;28;20087;-50
2021/01/15 00:34:24;;;;;;;9.25;4.45;;;5.80;86.70;;;;;;5013743;28;20025;-50
2021/01/15 00:36:49;;;;;;;9.32;4.72;;;5.90;86.80;;;;;;5014333;28;20033;-50
2021/01/15 00:39:16;;;;;;;9.15;4.15;;;5.80;86.80;;;;;;5015021;28;20030;-50
2021/01/15 00:41:44;;;;;;;10.07;3.63;;;5.80;86.80;;;;;;5014169;28;20026;-50
2021/01/15 00:44:10;;;;;;;10.95;3.67;;;5.90;86.80;;;;;;5014554;28;20045;-50
2021/01/15 00:46:43;;;;;;;10.35;3.38;;;5.90;86.70;;;;;;5013871;28;20018;-50
2021/01/15 00:49:10;;;;;;;9.82;3.90;;;5.80;86.80;;;;;;5015116;28;20045;-51
2021/01/15 00:51:37;;;;;;;8.27;4.28;;;5.80;86.70;;;;;;5013795;28;20040;-50
2021/01/15 00:54:06;;;;;;;8.38;3.30;;;5.80;86.70;;;;;;5015530;28;20041;-50
2021/01/15 00:56:32;;;;;;;7.95;3.50;;;5.80;86.70;;;;;;5033330;28;20108;-50
2021/01/15 00:58:57;;;;;;;9.48;3.83;;;5.80;86.60;;;;;;5032946;28;20041;-50
2021/01/15 01:01:25;;;;;;;5.85;3.25;;;5.80;86.80;;;;;;5032502;28;20028;-50
2021/01/15 01:03:52;;;;;;;9.35;3.90;;;5.80;86.70;;;;;;5032829;28;20025;-50
2021/01/15 01:06:20;;;;;;;5.45;3.35;;;5.80;86.60;;;;;;5021771;28;20022;-50
2021/01/15 01:08:46;;;;;;;7.88;3.53;;;5.80;86.60;;;;;;5013553;28;20033;-50
2021/01/15 01:11:13;;;;;;;11.00;4.70;;;5.80;86.60;;;;;;5030993;28;20095;-51
2021/01/15 01:13:39;;;;;;;10.00;3.53;;;5.80;86.60;;;;;;5033441;28;20108;-50
2021/01/15 01:16:05;;;;;;;7.85;3.30;;;5.80;86.60;;;;;;5033245;28;20022;-50
2021/01/15 01:18:33;;;;;;;6.32;2.80;;;5.80;86.60;;;;;;5032988;28;20561;-50
2021/01/15 01:20:59;;;;;;;9.27;3.25;;;5.80;86.70;;;;;;5031506;28;20034;-51
2021/01/15 01:23:25;;;;;;;5.43;3.22;;;5.80;86.70;;;;;;5022121;28;20033;-50
2021/01/15 01:25:50;;;;;;;6.47;3.15;;;5.80;86.60;;;;;;5013006;28;20026;-50
2021/01/15 01:28:17;;;;;;;11.48;3.47;;;5.80;86.60;;;;;;5013635;28;20030;-51
2021/01/15 01:30:43;;;;;;;11.48;3.83;;;5.80;86.60;;;;;;5013268;28;20470;-50
2021/01/15 01:33:08;;;;;;;8.38;3.45;;;5.80;86.70;;;;;;5024342;28;20136;-50
2021/01/15 01:35:34;;;;;;;7.65;3.83;;;5.80;86.70;;;;;;5015598;28;20074;-50
2021/01/15 01:37:59;;;;;;;6.90;2.75;;;5.80;86.60;;;;;;5033026;28;20084;-50
2021/01/15 01:40:25;;;;;;;5.97;2.88;;;5.70;86.50;;;;;;5019967;28;20046;-51
2021/01/15 01:42:51;;;;;;;6.00;3.47;;;5.80;86.60;;;;;;5018631;28;20131;-50
2021/01/15 01:45:16;;;;;;;7.25;2.97;;;5.70;87.20;;;;;;5016900;28;20033;-50
2021/01/15 01:47:42;;;;;;;12.32;3.05;;;5.70;86.50;;;;;;5018381;28;20033;-50
2021/01/15 01:50:09;;;;;;;5.65;2.65;;;5.70;86.40;;;;;;5017218;28;20053;-50
2021/01/15 01:52:36;;;;;;;6.72;2.80;;;5.70;86.40;;;;;;5033195;28;20041;-50
2021/01/15 01:55:03;;;;;;;5.78;2.85;;;5.70;86.40;;;;;;5036381;28;20355;-50
2021/01/15 01:57:28;;;;;;;5.40;2.67;;;5.70;86.40;;;;;;5036324;28;20068;-50
2021/01/15 01:59:54;;;;;;;4.05;2.70;;;5.70;86.40;;;;;;5034952;28;20041;-51
2021/01/15 02:02:20;;;;;;;8.75;2.40;;;5.70;86.40;;;;;;5046701;28;20426;-50
2021/01/15 02:04:46;;;;;;;7.95;3.65;;;5.70;86.40;;;;;;5016142;28;20048;-51
2021/01/15 02:07:15;;;;;;;6.35;2.83;;;5.70;86.30;;;;;;5018523;28;20041;-50
2021/01/15 02:09:54;;;;;;;9.70;2.92;;;5.70;86.30;;;;;;5016489;28;20030;-50
2021/01/15 02:12:36;;;;;;;5.00;3.00;;;5.70;86.30;;;;;;5016812;28;20041;-50
2021/01/15 02:15:24;;;;;;;6.05;2.78;;;5.70;86.30;;;;;;5034750;28;20363;-50
2021/01/15 02:17:58;;;;;;;5.15;2.88;;;5.70;86.30;;;;;;5030725;28;20030;-51
2021/01/15 02:20:43;;;;;;;5.65;2.50;;;5.70;86.20;;;;;;5018367;28;20022;-50
2021/01/15 02:23:23;;;;;;;5.55;2.72;;;5.70;86.20;;;;;;5016664;28;20037;-51
2021/01/15 02:26:07;;;;;;;8.00;2.80;;;5.70;86.20;;;;;;5017247;28;20038;-50
2021/01/15 02:29:09;;;;;;;7.72;3.35;;;5.70;86.20;;;;;;5017520;28;20037;-50
2021/01/15 02:31:46;;;;;;;8.65;3.20;;;5.70;86.20;;;;;;5016188;28;20356;-50
2021/01/15 02:34:21;;;;;;;4.35;2.67;;;5.70;86.20;;;;;;5017802;28;20494;-51
2021/01/15 02:37:08;;;;;;;5.30;2.83;;;5.70;86.20;;;;;;5035621;28;20038;-50
2021/01/15 02:39:51;;;;;;;6.78;3.00;;;5.70;86.20;;;;;;5034219;28;20033;-50
2021/01/15 02:42:17;;;;;;;6.22;2.75;;;5.70;86.10;;;;;;5016476;28;20030;-50
2021/01/15 02:44:48;;;;;;;4.15;2.40;;;5.70;86.00;;;;;;5016980;28;20411;-50
2021/01/15 02:47:22;;;;;;;7.65;3.08;;;5.70;86.10;;;;;;5017172;28;20092;-50
2021/01/15 02:49:50;;;;;;;8.00;3.22;;;5.60;86.00;;;;;;5016260;28;20053;-50
2021/01/15 02:52:16;;;;;;;5.75;3.28;;;5.60;86.00;;;;;;5015774;28;20077;-50
2021/01/15 02:54:42;;;;;;;6.65;3.25;;;5.60;86.00;;;;;;5015852;28;20022;-50
2021/01/15 02:57:08;;;;;;;6.43;3.15;;;5.60;86.10;;;;;;5017026;28;20428;-50
2021/01/15 02:59:33;;;;;;;7.30;3.40;;;5.60;85.90;;;;;;5015774;28;20440;-50
2021/01/15 03:02:17;;;;;;;4.70;3.13;;;5.60;85.90;;;;;;5015681;28;20026;-50
2021/01/15 03:04:43;;;;;;;7.72;3.25;;;5.60;86.00;;;;;;5015546;28;20026;-50
2021/01/15 03:07:11;;;;;;;4.60;2.95;;;5.60;86.00;;;;;;5021632;28;20116;-50
2021/01/15 03:09:41;;;;;;;5.30;3.30;;;5.60;86.00;;;;;;5015770;28;20026;-51
2021/01/15 03:12:07;;;;;;;8.05;3.67;;;5.60;86.00;;;;;;5015322;28;20034;-50
2021/01/15 03:14:35;;;;;;;10.02;3.88;;;5.60;86.00;;;;;;5015492;28;20101;-50
2021/01/15 03:17:05;;;;;;;12.88;3.65;;;5.60;86.00;;;;;;5027992;28;20056;-50
2021/01/15 03:19:31;;;;;;;6.43;3.60;;;5.60;85.90;;;;;;5035121;28;20044;-50
2021/01/15 03:22:00;;;;;;;7.47;3.20;;;5.60;85.90;;;;;;5035247;28;20443;-50
2021/01/15 03:24:28;;;;;;;7.70;3.70;;;5.60;86.00;;;;;;5034641;28;20037;-50
2021/01/15 03:26:54;;;;;;;8.73;3.22;;;5.60;86.00;;;;;;5033276;28;21522;-50
2021/01/15 03:29:20;;;;;;;7.18;4.38;;;5.60;86.00;;;;;;5034818;28;20087;-50
2021/01/15 03:31:45;;;;;;;7.13;3.85;;;5.60;85.90;;;;;;5034899;28;20034;-50
2021/01/15 03:34:11;;;;;;;12.25;4.20;;;5.60;85.90;;;;;;5034477;28;20034;-50
2021/01/15 03:36:36;;;;;;;10.20;3.15;;;5.60;86.00;;;;;;5034988;28;20384;-50
2021/01/15 03:39:03;;;;;;;5.57;3.30;;;5.50;85.90;;;;;;5022879;28;20030;-50
2021/01/15 03:41:29;;;;;;;7.43;3.55;;;5.50;85.90;;;;;;5015267;28;20402;-50
2021/01/15 03:43:54;;;;;;;4.68;3.25;;;5.50;85.90;;;;;;5021519;28;20026;-50
2021/01/15 03:46:20;;;;;;;7.82;3.88;;;5.50;85.90;;;;;;5014648;28;20029;-50
2021/01/15 03:48:46;;;;;;;8.57;3.88;;;5.50;85.90;;;;;;5018765;28;20363;-50
2021/01/15 03:51:12;;;;;;;9.45;3.60;;;5.50;85.90;;;;;;5035035;28;20029;-50
2021/01/15 03:53:38;;;;;;;7.00;4.07;;;5.50;85.90;;;;;;5033768;28;20065;-50
2021/01/15 03:56:04;;;;;;;11.52;3.58;;;5.50;85.90;;;;;;5033848;28;20435;-50
2021/01/15 03:58:29;;;;;;;10.48;4.25;;;5.50;85.80;;;;;;5033461;28;20033;-50
2021/01/15 04:00:55;;;;;;;5.75;4.13;;;5.50;85.90;;;;;;5033991;28;20020;-50
2021/01/15 04:03:20;;;;;;;4.75;3.15;;;5.50;86.60;;;;;;5033903;28;20029;-51
2021/01/15 04:05:46;;;;;;;8.18;3.58;;;5.50;85.80;;;;;;5029496;28;20100;-50
2021/01/15 04:08:12;;;;;;;6.93;3.45;;;5.50;85.80;;;;;;5026694;28;20061;-50
2021/01/15 04:10:37;;;;;;;5.13;3.20;;;5.50;85.90;;;;;;5014446;28;20037;-50
2021/01/15 04:13:03;;;;;;;9.77;3.78;;;5.50;85.90;;;;;;5014559;28;20038;-51
2021/01/15 04:15:29;;;;;;;8.73;3.28;;;5.50;85.90;;;;;;5015523;28;20022;-50
2021/01/15 04:17:58;;;;;;;10.05;3.47;;;5.50;85.90;;;;;;5014310;28;20509;-50
2021/01/15 04:20:24;;;;;;;8.82;3.65;;;5.50;85.90;;;;;;5024295;28;20033;-50
2021/01/15 04:22:50;;;;;;;10.00;4.07;;;5.40;85.80;;;;;;5033942;28;20030;-50
2021/01/15 04:25:15;;;;;;;6.95;4.07;;;5.50;85.90;;;;;;5033025;28;20036;-50
2021/01/15 04:27:42;;;;;;;6.30;3.28;;;5.40;85.80;;;;;;5032593;28;20523;-50
2021/01/15 04:30:12;;;;;;;8.35;3.83;;;5.40;85.70;;;;;;5032375;28;20033;-50
2021/01/15 04:32:42;;;;;;;;;;;5.40;86.50;;;;;;5022351;28;20061;-50
2021/01/15 04:35:08;;;;;;;9.45;3.92;;;5.40;85.80;;;;;;5021185;28;19909;-50
2021/01/15 04:37:35;;;;;;;6.85;3.63;;;5.40;85.80;;;;;;5031568;28;20470;-51
2021/01/15 04:40:01;;;;;;;13.25;4.15;;;5.40;85.80;;;;;;5033669;28;20154;-50
2021/01/15 04:42:29;;;;;;;8.13;3.45;;;5.40;85.80;;;;;;5033828;28;20450;-51
2021/01/15 04:44:54;;;;;;;10.32;3.63;;;5.40;85.80;;;;;;5033605;28;20083;-50
2021/01/15 04:47:22;;;;;;;8.43;3.95;;;5.40;85.80;;;;;;5031725;28;20052;-50
2021/01/15 04:49:49;;;;;;;11.32;4.70;;;5.40;85.80;;;;;;5033633;28;20044;-51
2021/01/15 04:52:15;;;;;;;13.38;4.13;;;5.40;85.80;;;;;;5033134;28;20029;-51
2021/01/15 04:54:46;;;;;;;5.45;3.55;;;5.40;85.70;;;;;;5017168;28;20049;-51
2021/01/15 04:57:12;;;;;;;9.55;4.28;;;5.40;85.80;;;;;;5014987;28;20407;-50
2021/01/15 04:59:49;;;;;;;12.60;4.93;;;5.40;85.70;;;;;;5013813;28;20113;-51
2021/01/15 05:02:17;;;;;;;9.68;4.00;;;5.40;85.80;;;;;;5025063;28;20518;-51
2021/01/15 05:04:43;;;;;;;8.30;4.03;;;5.40;85.70;;;;;;5032730;28;20447;-51
2021/01/15 05:07:13;;;;;;;9.00;4.40;;;5.40;85.70;;;;;;5014019;28;20400;-51
2021/01/15 05:09:46;;;;;;;13.63;4.53;;;5.40;85.70;;;;;;5015066;28;20036;-51
2021/01/15 05:12:15;;;;;;;7.22;3.42;;;5.40;85.70;;;;;;5013815;28;20042;-51
2021/01/15 05:14:47;;;;;;;9.68;4.65;;;5.40;85.70;;;;;;5013375;28;20034;-51
2021/01/15 05:17:13;;;;;;;9.85;4.22;;;5.40;85.70;;;;;;5013270;28;20364;-51
2021/01/15 05:19:41;;;;;;;11.35;5.10;;;5.40;85.70;;;;;;5031598;28;20035;-51
2021/01/15 05:22:08;;;;;;;11.45;5.50;;;5.40;85.70;;;;;;5033126;28;20398;-50
2021/01/15 05:24:34;;;;;;;8.20;4.55;;;5.40;85.70;;;;;;5013804;28;20523;-51
2021/01/15 05:30:17;;;;;;;11.45;4.88;;;5.40;85.70;;;;;;5021331;28;20083;-51
2021/01/15 05:32:43;;;;;;;13.40;4.97;;;5.30;85.70;;;;;;5027895;28;20120;-51
2021/01/15 05:35:10;;;;;;;7.72;4.75;;;5.30;85.70;;;;;;5022005;28;20055;-51
2021/01/15 05:37:36;;;;;;;10.98;5.10;;;5.30;85.70;;;;;;5023432;28;20033;-51
2021/01/15 05:40:04;;;;;;;14.48;5.43;;;5.30;85.70;;;;;;5028657;28;20044;-51
2021/01/15 05:42:29;;;;;;;9.15;5.50;;;5.30;85.70;;;;;;5027045;28;20092;-51
2021/01/15 05:45:12;;;;;;;11.80;5.40;;;5.30;85.60;;;;;;5012979;28;20037;-50
2021/01/15 05:47:43;;;;;;;13.18;5.43;;;5.30;85.60;;;;;;5024017;28;20509;-51
2021/01/15 05:50:09;;;;;;;;;;;5.30;85.70;;;;;;5018319;28;20041;-50
2021/01/15 05:52:36;;;;;;;18.30;7.40;;;5.30;85.70;;;;;;5018341;28;20163;-51
2021/01/15 05:55:13;;;;;;;13.02;6.45;;;5.30;85.70;;;;;;5030749;28;20116;-51
2021/01/15 05:57:40;;;;;;;19.67;7.75;;;5.30;85.70;;;;;;5027715;28;20419;-51
2021/01/15 06:00:07;;;;;;;15.75;6.45;;;5.30;85.60;;;;;;5023968;28;20037;-50
2021/01/15 06:02:33;;;;;;;13.57;6.30;;;5.30;85.60;;;;;;5017210;28;20069;-51
2021/01/15 06:04:59;;;;;;;18.98;6.70;;;5.30;85.60;;;;;;5020035;28;20033;-51
2021/01/15 06:07:28;;;;;;;16.17;6.97;;;5.30;85.60;;;;;;5016422;28;20025;-51
2021/01/15 06:10:01;;;;;;;14.55;6.13;;;5.30;85.60;;;;;;5032040;28;20041;-51
2021/01/15 06:12:39;;;;;;;18.48;7.63;;;5.30;85.60;;;;;;5018397;28;20527;-51
2021/01/15 06:15:06;;;;;;;20.70;7.72;;;5.30;85.60;;;;;;5013915;28;20060;-51
2021/01/15 06:17:38;;;;;;;15.68;6.50;;;5.30;85.60;;;;;;5021603;28;20068;-52
2021/01/15 06:20:04;;;;;;;17.58;7.38;;;5.30;85.60;;;;;;5029034;28;20356;-52
2021/01/15 06:22:47;;;;;;;12.93;6.50;;;5.20;85.50;;;;;;5018891;28;20037;-51
2021/01/15 06:25:28;;;;;;;17.75;6.97;;;5.20;85.30;;;;;;5012552;28;20032;-52
2021/01/15 06:27:56;;;;;;;19.88;8.05;;;5.20;85.20;;;;;;5034855;28;20048;-52
2021/01/15 06:30:24;;;;;;;15.98;7.40;;;5.30;85.20;;;;;;5036254;28;20350;-52
2021/01/15 06:32:50;;;;;;;14.27;6.82;;;5.20;85.00;;;;;;5033582;28;20045;-52
2021/01/15 06:35:30;;;;;;;18.98;8.30;;;5.30;85.00;;;;;;5025015;28;20113;-52
2021/01/15 06:38:02;;;;;;;14.93;6.00;;;5.30;85.00;;;;;;5024802;28;20044;-52
2021/01/15 06:40:40;;;;;;;15.30;7.07;;;5.30;85.00;;;;;;5024926;28;20409;-52
2021/01/15 06:43:08;;;;;;;14.45;6.78;;;5.30;85.00;;;;;;5029567;28;20051;-51
2021/01/15 06:45:49;;;;;;;15.27;6.70;;;5.30;85.00;;;;;;5025160;28;20045;-52
2021/01/15 06:48:26;;;;;;;14.53;7.20;;;5.30;85.00;;;;;;5024604;28;20034;-51
2021/01/15 06:50:57;;;;;;;19.27;7.03;;;5.30;85.00;;;;;;5022869;28;20356;-52
2021/01/15 06:53:43;;;;;;;12.82;7.10;;;5.30;85.00;;;;;;5023246;28;20578;-51
2021/01/15 06:56:17;;;;;;;15.02;6.35;;;5.30;85.10;;;;;;5024870;28;20126;-52
2021/01/15 06:58:44;;;;;;;16.60;6.93;;;5.30;85.10;;;;;;5024342;28;20028;-51
2021/01/15 07:01:21;;;;;;;15.82;6.18;;;5.40;85.10;;;;;;5025578;28;20120;-52
2021/01/15 07:04:17;;;;;;;18.08;6.78;;;5.40;85.20;;;;;;5025178;28;20083;-51
2021/01/15 07:07:06;;;;;;;10.60;5.65;;;5.40;85.20;;;;;;5025762;28;20030;-52
2021/01/15 07:09:34;;;;;;;12.83;6.63;;;5.40;85.10;;;;;;5026027;28;20465;-51
2021/01/15 07:12:07;;;;;;;13.15;5.43;;;5.40;85.20;;;;;;5023223;28;20037;-52
2021/01/15 07:14:45;;;;;;;11.23;5.97;;;5.40;85.30;;;;;;5021763;28;20474;-51
2021/01/15 07:17:25;;;;;;;12.48;5.93;;;5.40;85.30;;;;;;5023572;28;20022;-51
2021/01/15 07:20:00;;;;;;;14.80;7.07;;;5.40;85.30;;;;;;5015658;28;20162;-52
2021/01/15 07:22:34;;;;;;;16.83;6.70;;;5.40;85.30;;;;;;5015556;28;20033;-52
2021/01/15 07:25:04;;;;;;;16.30;7.32;;;5.40;85.30;;;;;;5021947;28;20033;-52
2021/01/15 07:27:30;;;;;;;19.73;9.05;;;5.40;85.30;;;;;;5019273;28;20087;-52
2021/01/15 07:29:56;;;;;;;11.30;5.85;;;5.40;85.30;;;;;;5026353;28;20058;-52
2021/01/15 07:32:28;;;;;;;20.25;8.55;;;5.40;85.30;;;;;;5015239;28;20359;-52
2021/01/15 07:35:02;;;;;;;13.65;6.20;;;5.40;85.30;;;;;;5027969;28;20025;-52
2021/01/15 07:37:29;;;;;;;12.73;5.70;;;5.40;85.40;;;;;;5034246;28;20065;-52
2021/01/15 07:40:09;;;;;;;18.58;7.80;;;5.40;85.50;;;;;;5019783;28;20049;-52
2021/01/15 07:42:51;;;;;;;15.85;5.80;;;5.40;85.40;;;;;;5014891;28;20034;-52
2021/01/15 07:45:25;;;;;;;13.73;7.00;;;5.40;85.50;;;;;;5014584;28;20410;-52
2021/01/15 07:48:01;;;;;;;16.13;7.43;;;5.40;85.40;;;;;;5016274;28;20030;-51
2021/01/15 07:50:27;;;;;;;16.92;6.13;;;5.40;85.50;;;;;;5015072;28;20159;-52
2021/01/15 07:53:05;;;;;;;13.02;5.65;;;5.40;85.50;;;;;;5030477;28;20037;-51
2021/01/15 07:55:47;;;;;;;15.23;6.22;;;5.40;85.50;;;;;;5034312;28;20030;-52
2021/01/15 07:58:14;;;;;;;14.68;6.28;;;5.40;85.50;;;;;;5033090;28;20034;-52
2021/01/15 08:00:40;;;;;;;17.00;6.68;;;5.40;85.50;;;;;;5034489;28;20442;-51
2021/01/15 08:03:06;;;;;;;10.68;6.05;;;5.40;85.40;;;;;;5034294;28;20041;-52
2021/01/15 08:05:32;;;;;;;18.63;7.05;;;5.40;85.50;;;;;;5032723;28;20037;-51
2021/01/15 08:08:05;;;;;;;13.05;6.75;;;5.50;85.50;;;;;;5030986;28;20087;-51
2021/01/15 08:10:31;;;;;;;20.40;7.65;;;5.50;85.50;;;;;;5014585;28;20037;-52
2021/01/15 08:12:56;;;;;;;14.35;7.25;;;5.50;85.50;;;;;;5014673;28;20041;-51
2021/01/15 08:15:32;;;;;;;14.15;7.30;;;5.50;85.50;;;;;;5014262;28;20411;-51
2021/01/15 08:18:02;;;;;;;20.30;6.82;;;5.50;85.40;;;;;;5014577;28;20049;-52
2021/01/15 08:20:28;;;;;;;16.20;8.10;;;5.50;85.50;;;;;;5029900;28;20072;-51
2021/01/15 08:22:54;;;;;;;14.48;6.43;;;5.50;85.50;;;;;;5033682;28;20034;-52
2021/01/15 08:25:27;;;;;;;23.77;8.05;;;5.50;85.50;;;;;;5034129;28;20344;-51
2021/01/15 08:27:53;;;;;;;17.65;7.03;;;5.50;85.50;;;;;;5028571;28;20534;-51
2021/01/15 08:30:19;;;;;;;17.38;7.72;;;5.50;85.50;;;;;;5015258;28;20355;-52
2021/01/15 08:32:44;;;;;;;19.30;7.95;;;5.50;85.50;;;;;;5014125;28;20042;-52
2021/01/15 08:35:13;;;;;;;21.10;9.32;;;5.50;85.50;;;;;;5013828;28;20029;-51
2021/01/15 08:37:40;;;;;;;19.77;7.82;;;5.60;85.60;;;;;;5014089;28;20030;-52
2021/01/15 08:40:06;;;;;;;15.98;7.20;;;5.60;85.50;;;;;;5015092;28;20026;-52
2021/01/15 08:42:32;;;;;;;26.65;7.50;;;5.60;85.60;;;;;;5014130;28;20029;-51
2021/01/15 08:44:59;;;;;;;19.77;7.88;;;5.60;85.50;;;;;;5013942;28;20328;-52
2021/01/15 08:47:25;;;;;;;16.10;7.10;;;5.60;85.50;;;;;;5015944;28;20033;-52
2021/01/15 08:49:55;;;;;;;23.10;8.95;;;5.60;85.50;;;;;;5013939;28;20076;-51
2021/01/15 08:52:33;;;;;;;18.98;7.40;;;5.60;85.50;;;;;;5027002;28;20028;-52
2021/01/15 08:55:01;;;;;;;19.70;7.15;;;5.70;85.50;;;;;;5027935;28;20068;-52
2021/01/15 08:57:28;;;;;;;15.27;6.53;;;5.70;85.50;;;;;;5032724;28;20025;-52
2021/01/15 08:59:54;;;;;;;17.17;6.90;;;5.70;85.50;;;;;;5033617;28;20063;-52
2021/01/15 09:02:21;;;;;;;16.42;6.82;;;5.70;85.50;;;;;;5031334;28;20375;-51
2021/01/15 09:04:49;;;;;;;13.50;6.40;;;5.70;86.10;;;;;;5032839;28;20041;-52
2021/01/15 09:07:17;;;;;;;14.25;7.18;;;5.70;85.40;;;;;;5013768;28;20030;-51
2021/01/15 09:09:43;;;;;;;15.65;6.63;;;5.70;85.40;;;;;;5013398;28;20037;-51
2021/01/15 09:12:10;;;;;;;14.73;6.93;;;5.70;85.40;;;;;;5012757;28;20121;-51
2021/01/15 09:14:36;;;;;;;13.60;5.53;;;5.70;85.30;;;;;;5011687;28;20026;-52
2021/01/15 09:17:04;;;;;;;15.48;6.68;;;5.80;85.40;;;;;;5025079;28;20033;-52
2021/01/15 09:19:29;;;;;;;15.50;7.15;;;5.80;85.30;;;;;;5031118;28;20030;-51
2021/01/15 09:22:04;;;;;;;13.75;6.30;;;5.80;85.30;;;;;;5029701;28;20039;-52
2021/01/15 09:24:30;;;;;;;13.85;6.35;;;5.80;85.20;;;;;;5031192;28;20355;-52
2021/01/15 09:26:58;;;;;;;10.95;5.70;;;5.80;85.20;;;;;;5032363;28;20025;-52
2021/01/15 09:29:24;;;;;;;14.55;6.88;;;5.90;85.30;;;;;;5018957;28;20042;-52
2021/01/15 09:31:51;;;;;;;17.92;7.55;;;5.80;85.20;;;;;;5013530;28;20034;-52
2021/01/15 09:34:17;;;;;;;17.58;6.03;;;5.80;85.10;;;;;;5014579;28;20034;-52
2021/01/15 09:36:44;;;;;;;19.83;7.38;;;5.90;85.10;;;;;;5031607;28;20055;-52
2021/01/15 09:39:12;;;;;;;16.77;7.00;;;5.90;85.10;;;;;;5030440;28;20045;-51
2021/01/15 09:41:52;;;;;;;22.38;7.03;;;5.90;85.10;;;;;;5013306;28;20026;-52
2021/01/15 09:44:20;;;;;;;17.42;6.45;;;6.00;85.00;;;;;;5020073;28;20068;-52
2021/01/15 09:46:47;;;;;;;14.30;6.05;;;6.00;85.00;;;;;;5032557;28;20029;-51
2021/01/15 09:49:13;;;;;;;16.08;6.65;;;6.00;85.00;;;;;;5033086;28;20474;-51
2021/01/15 09:51:39;;;;;;;16.60;6.93;;;6.00;85.00;;;;;;5032969;28;20029;-51
2021/01/15 09:54:05;;;;;;;12.55;6.40;;;6.00;85.00;;;;;;5019008;28;20454;-51
2021/01/15 09:56:40;;;;;;;16.23;6.00;;;6.00;84.80;;;;;;5012119;28;20022;-52
2021/01/15 09:59:07;;;;;;;13.95;5.82;;;6.00;84.90;;;;;;5013212;28;20482;-51
2021/01/15 10:01:33;;;;;;;12.23;6.32;;;6.10;84.90;;;;;;5015584;28;20507;-51
2021/01/15 10:03:59;;;;;;;10.30;6.10;;;6.10;84.90;;;;;;5017437;28;20109;-51
2021/01/15 10:06:32;;;;;;;18.38;6.07;;;6.10;84.90;;;;;;5030515;28;20057;-52
2021/01/15 10:08:58;;;;;;;17.40;6.68;;;6.10;84.80;;;;;;5033330;28;20121;-52
2021/01/15 10:11:27;;;;;;;13.23;6.35;;;6.10;84.90;;;;;;5016816;28;20365;-51
2021/01/15 10:13:55;;;;;;;14.70;6.43;;;6.10;84.90;;;;;;5016478;28;20044;-51
2021/01/15 10:16:21;;;;;;;14.80;6.35;;;6.10;84.90;;;;;;5027137;28;20038;-51
2021/01/15 10:18:46;;;;;;;13.05;6.35;;;6.10;84.80;;;;;;5035830;28;20106;-52
2021/01/15 10:21:12;;;;;;;10.60;6.22;;;6.10;84.80;;;;;;5036518;28;20053;-52
2021/01/15 10:23:38;;;;;;;20.58;7.40;;;6.20;84.80;;;;;;5029202;28;20447;-51
2021/01/15 10:26:05;;;;;;;11.25;6.53;;;6.20;84.90;;;;;;5017634;28;20044;-52
2021/01/15 10:28:31;;;;;;;14.93;6.68;;;6.20;84.80;;;;;;5016618;28;20034;-52
2021/01/15 10:30:57;;;;;;;13.50;5.78;;;6.20;84.80;;;;;;5016641;28;20061;-51
2021/01/15 10:33:23;;;;;;;18.92;6.70;;;6.20;84.70;;;;;;5026113;28;20099;-52
2021/01/15 10:35:49;;;;;;;15.15;6.07;;;6.20;85.40;;;;;;5035073;28;20037;-51
2021/01/15 10:38:15;;;;;;;15.27;6.55;;;6.30;84.70;;;;;;5035024;28;20041;-52
2021/01/15 10:40:42;;;;;;;12.18;5.63;;;6.30;84.80;;;;;;5036208;28;20335;-52
2021/01/15 10:43:08;;;;;;;16.33;6.55;;;6.30;84.90;;;;;;5027055;28;20045;-52
2021/01/15 10:45:33;;;;;;;12.85;6.55;;;6.30;84.80;;;;;;5016095;28;20018;-51
2021/01/15 10:47:59;;;;;;;16.42;6.57;;;6.40;84.90;;;;;;5022766;28;20090;-52
2021/01/15 10:50:25;;;;;;;11.00;6.38;;;6.40;84.80;;;;;;5035505;28;20033;-52
2021/01/15 10:52:54;;;;;;;14.27;5.95;;;6.40;84.90;;;;;;5015766;28;20041;-51
2021/01/15 10:55:20;;;;;;;18.77;6.32;;;6.40;84.90;;;;;;5016101;28;20053;-52
2021/01/15 10:57:46;;;;;;;12.98;5.43;;;6.40;84.90;;;;;;5016817;28;20061;-52
2021/01/15 11:00:16;;;;;;;12.18;5.85;;;6.40;84.90;;;;;;5016071;28;20020;-52
2021/01/15 11:02:51;;;;;;;15.07;6.35;;;6.40;85.10;;;;;;5016151;28;20034;-51
2021/01/15 11:05:17;;;;;;;12.13;6.32;;;6.40;84.90;;;;;;5020363;28;20124;-51
2021/01/15 11:07:44;;;;;;;14.70;6.22;;;6.40;85.10;;;;;;5016684;28;20129;-52
2021/01/15 11:10:11;;;;;;;9.95;5.13;;;6.50;85.50;;;;;;5015919;28;20084;-51
2021/01/15 11:12:36;;;;;;;15.23;5.78;;;6.50;85.60;;;;;;5015534;28;20121;-51
2021/01/15 11:15:03;;;;;;;14.50;6.45;;;6.50;86.20;;;;;;5015629;28;20050;-52
2021/01/15 11:17:29;;;;;;;16.80;6.78;;;6.60;86.50;;;;;;5016431;28;20037;-52
2021/01/15 11:19:55;;;;;;;10.85;5.53;;;6.60;86.60;;;;;;5015374;28;20029;-51
2021/01/15 11:22:21;;;;;;;12.85;5.63;;;6.70;86.70;;;;;;5015626;28;20080;-52
2021/01/15 11:24:46;;;;;;;11.15;6.22;;;6.70;86.60;;;;;;5015667;28;20105;-52
2021/01/15 11:27:12;;;;;;;13.25;6.28;;;6.80;86.40;;;;;;5024038;28;20332;-51
2021/01/15 11:29:38;;;;;;;10.43;5.20;;;6.90;86.40;;;;;;5018779;28;20448;-52
2021/01/15 11:32:04;;;;;;;14.48;5.15;;;6.90;86.30;;;;;;5015387;28;20460;-52
2021/01/15 11:34:29;;;;;;;11.07;4.97;;;6.90;86.30;;;;;;5014914;28;20448;-51
2021/01/15 11:36:55;;;;;;;10.43;5.43;;;6.90;86.20;;;;;;5016194;28;20036;-52
2021/01/15 11:39:22;;;;;;;13.38;5.82;;;6.90;86.20;;;;;;5015063;28;20473;-52
2021/01/15 11:41:54;;;;;;;9.98;4.97;;;7.00;86.50;;;;;;5017283;28;20034;-52
2021/01/15 11:44:20;;;;;;;9.73;5.70;;;6.90;86.50;;;;;;5019782;28;20033;-52
2021/01/15 11:46:46;;;;;;;10.80;5.32;;;6.90;86.50;;;;;;5023470;28;20108;-52
2021/01/15 11:49:12;;;;;;;16.20;6.95;;;7.00;86.60;;;;;;5025011;28;20112;-51
2021/01/15 11:51:38;;;;;;;10.00;5.50;;;7.00;86.70;;;;;;5014926;28;20076;-51
2021/01/15 11:54:12;;;;;;;11.32;5.32;;;7.00;86.70;;;;;;5029398;28;20030;-52
2021/01/15 11:56:40;;;;;;;13.32;6.30;;;7.00;86.70;;;;;;5024350;28;20096;-52
2021/01/15 11:59:07;;;;;;;12.48;5.78;;;7.00;87.00;;;;;;5014855;28;20372;-52
2021/01/15 12:01:33;;;;;;;10.95;4.82;;;7.00;87.20;;;;;;5023737;28;20084;-52
2021/01/15 12:03:59;;;;;;;14.07;6.32;;;6.90;87.40;;;;;;5019214;28;20033;-52
2021/01/15 12:06:24;;;;;;;12.07;5.35;;;7.00;87.70;;;;;;5022709;28;20105;-52
2021/01/15 12:08:50;;;;;;;11.73;5.43;;;6.90;87.60;;;;;;5015704;28;20068;-51
2021/01/15 12:11:16;;;;;;;8.70;4.80;;;6.90;87.80;;;;;;5014591;28;20026;-52
2021/01/15 12:13:41;;;;;;;10.18;5.25;;;6.90;88.10;;;;;;5014529;28;20042;-52
2021/01/15 12:16:07;;;;;;;9.70;4.72;;;7.00;88.30;;;;;;5017714;28;20026;-51
2021/01/15 12:18:33;;;;;;;11.20;4.65;;;7.00;88.30;;;;;;5023967;28;20044;-51
2021/01/15 12:20:58;;;;;;;10.10;5.00;;;7.00;88.30;;;;;;5022917;28;20029;-51
2021/01/15 12:23:24;;;;;;;14.20;5.70;;;7.00;88.40;;;;;;5023970;28;20359;-52
2021/01/15 12:25:50;;;;;;;10.10;5.25;;;7.00;88.30;;;;;;5023150;28;20029;-52
2021/01/15 12:28:18;;;;;;;10.90;5.13;;;7.00;88.20;;;;;;5024473;28;20467;-51
2021/01/15 12:30:45;;;;;;;10.15;5.03;;;7.00;88.30;;;;;;5023555;28;20037;-51
2021/01/15 12:33:15;;;;;;;12.13;5.38;;;7.00;88.30;;;;;;5023220;28;20064;-52
2021/01/15 12:35:45;;;;;;;11.63;5.45;;;7.00;88.30;;;;;;5023852;28;20065;-52
2021/01/15 12:38:13;;;;;;;6.45;4.13;;;7.10;88.20;;;;;;5029505;28;20061;-52
2021/01/15 12:40:39;;;;;;;9.30;4.68;;;7.10;88.20;;;;;;5023599;28;20034;-51
2021/01/15 12:43:06;;;;;;;8.52;4.75;;;7.20;88.30;;;;;;5032552;28;20056;-53
2021/01/15 12:45:33;;;;;;;9.43;5.10;;;7.10;88.10;;;;;;5033391;28;20550;-51
2021/01/15 12:47:59;;;;;;;9.75;4.50;;;7.20;88.00;;;;;;5026836;28;20022;-51
2021/01/15 12:50:25;;;;;;;10.98;4.88;;;7.10;88.00;;;;;;5015037;28;20383;-51
2021/01/15 12:52:52;;;;;;;10.00;5.10;;;7.10;88.10;;;;;;5013810;28;20442;-51
2021/01/15 12:55:25;;;;;;;12.07;5.20;;;7.10;88.80;;;;;;5027414;28;20405;-51
2021/01/15 12:57:51;;;;;;;12.98;4.90;;;7.10;88.10;;;;;;5032740;28;20030;-51
2021/01/15 13:00:18;;;;;;;10.80;5.03;;;7.10;88.10;;;;;;5026009;28;20108;-51